This is the latest recevied weather packets stored in our database for station/object KZ4HT-13. If no packets are shown the sender has not sent any weather packets the latest 10 day(s).
| Time | Temp. | Humidity | Pressure | Rain* | Wind** | Luminosity | Snow |
|---|---|---|---|---|---|---|---|
| 1777899637 | 22.22° C | 63% | 1017.7 hPa | 0 mm | - | - | - |
| 1777894224 | 16.67° C | 87% | 1017.1 hPa | 0 mm | - | - | - |
| 1777893022 | 16.11° C | 90% | 1016.9 hPa | 0 mm | - | - | - |
| 1777885865 | 16.67° C | 89% | 1016.4 hPa | 0 mm | - | - | - |
| 1777884662 | 17.22° C | 86% | 1016.3 hPa | 0 mm | - | - | - |
| 1777881676 | 17.78° C | 83% | 1016.5 hPa | 0 mm | - | - | - |
| 1777875645 | 18.89° C | 77% | 1017 hPa | 0 mm | - | - | - |
| 1777875043 | 19.44° C | 76% | 1016.5 hPa | 0 mm | - | - | - |
| 1777872037 | 20° C | 74% | 1017.6 hPa | 0 mm | - | - | - |
| 1777870253 | 20° C | 72% | 1017.9 hPa | 0 mm | - | - | - |
| 1777867828 | 20.56° C | 71% | 1017.9 hPa | 0 mm | - | - | - |
| 1777866625 | 20.56° C | 71% | 1018 hPa | 1.27 mm | - | - | - |
| 1777863618 | 20.56° C | 71% | 1018 hPa | 1.27 mm | - | - | - |
| 1777862416 | 20.56° C | 71% | 1017.9 hPa | 1.27 mm | - | - | - |
| 1777861273 | 20.56° C | 70% | 1017.8 hPa | 1.27 mm | - | - | - |
| 1777857065 | 20.56° C | 69% | 1017.3 hPa | 1.27 mm | - | - | - |
| 1777847442 | 24.44° C | 59% | 1016.4 hPa | 1.27 mm | - | - | - |
| 1777842031 | 25° C | 55% | 1016.2 hPa | 1.27 mm | - | - | - |
| 1777841430 | 25° C | 55% | 1016.1 hPa | 1.27 mm | - | - | - |
| 1777840228 | 25° C | 55% | 1016.4 hPa | 1.27 mm | - | - | - |
| 1777831862 | 24.44° C | 58% | 1018.2 hPa | 1.27 mm | - | - | - |
| 1777830659 | 23.89° C | 61% | 1018.4 hPa | 1.27 mm | - | - | - |
| 1777825846 | 22.78° C | 67% | 1019 hPa | 1.27 mm | - | - | - |
| 1777825265 | 22.78° C | 68% | 1018.9 hPa | 1.27 mm | - | - | - |
| 1777824643 | 22.22° C | 69% | 1019 hPa | 1.27 mm | - | - | - |
* Rain since midnight (hover to see other rain measurements)
** Current wind speed in m/s (hover to see current wind gust speed)